createdAt,value
2023-04-17T00:00:28.265Z,99581.09
2023-04-17T00:02:56.220Z,99587.75
2023-04-17T00:05:24.033Z,99586.22
2023-04-17T00:07:51.526Z,99591.22
2023-04-17T00:10:19.394Z,99596.16
2023-04-17T00:12:46.806Z,99588.16
2023-04-17T00:15:14.187Z,99591.50
2023-04-17T00:17:41.941Z,99584.50
2023-04-17T00:20:10.769Z,99586.38
2023-04-17T00:22:38.672Z,99582.72
2023-04-17T00:25:06.828Z,99574.50
2023-04-17T00:27:34.455Z,99574.87
2023-04-17T00:30:01.958Z,99569.88
2023-04-17T00:32:29.751Z,99573.75
2023-04-17T00:34:57.101Z,99578.94
2023-04-17T00:37:24.498Z,99572.31
2023-04-17T00:39:52.448Z,99571.16
2023-04-17T00:42:19.901Z,99580.91
2023-04-17T00:44:47.397Z,99582.84
2023-04-17T00:47:15.484Z,99575.56
2023-04-17T00:49:43.184Z,99576.59
2023-04-17T00:52:10.612Z,99578.06
2023-04-17T00:54:38.431Z,99572.53
2023-04-17T00:57:06.384Z,99571.56
2023-04-17T00:59:34.102Z,99573.13
2023-04-17T01:02:02.010Z,99574.06
2023-04-17T01:04:29.475Z,99569.44
2023-04-17T01:06:57.369Z,99565.56
2023-04-17T01:09:25.105Z,99570.12
2023-04-17T01:11:53.059Z,99563.88
2023-04-17T01:14:20.835Z,99570.19
2023-04-17T01:16:48.777Z,99571.25
2023-04-17T01:19:17.074Z,99572.78
2023-04-17T01:21:44.498Z,99562.28
2023-04-17T01:24:12.882Z,99570.03
2023-04-17T01:26:41.540Z,99567.78
2023-04-17T01:29:09.124Z,99559.78
2023-04-17T01:31:37.454Z,99559.97
2023-04-17T01:34:05.301Z,99558.41
2023-04-17T01:36:33.035Z,99564.34
2023-04-17T01:39:00.762Z,99566.69
2023-04-17T01:41:28.253Z,99561.56
2023-04-17T01:43:55.714Z,99564.97
2023-04-17T01:46:23.499Z,99555.16
2023-04-17T01:48:50.997Z,99553.53
2023-04-17T01:51:18.469Z,99557.25
2023-04-17T01:53:46.113Z,99564.28
2023-04-17T01:56:13.916Z,99560.53
2023-04-17T01:58:43.051Z,99560.38
2023-04-17T02:01:10.883Z,99565.50
2023-04-17T02:03:38.758Z,99562.91
2023-04-17T02:06:06.675Z,99550.22
2023-04-17T02:08:34.584Z,99549.81
2023-04-17T02:11:03.815Z,99546.66
2023-04-17T02:13:31.872Z,99556.88
2023-04-17T02:15:59.439Z,99566.87
2023-04-17T02:18:29.731Z,99563.09
2023-04-17T02:20:57.109Z,99557.72
2023-04-17T02:23:24.528Z,99563.62
2023-04-17T02:25:52.300Z,99562.59
2023-04-17T02:28:20.035Z,99559.84
2023-04-17T02:30:47.405Z,99557.13
2023-04-17T02:33:15.037Z,99554.19
2023-04-17T02:35:42.518Z,99553.72
2023-04-17T02:38:10.037Z,99543.66
2023-04-17T02:40:38.927Z,99547.09
2023-04-17T02:43:06.319Z,99543.56
2023-04-17T02:45:35.573Z,99541.06
2023-04-17T02:48:03.418Z,99544.19
2023-04-17T02:50:31.256Z,99538.91
2023-04-17T02:53:00.168Z,99545.13
2023-04-17T02:55:27.877Z,99546.09
2023-04-17T02:57:55.384Z,99539.00
2023-04-17T03:00:23.230Z,99541.88
2023-04-17T03:02:51.194Z,99545.69
2023-04-17T03:05:20.353Z,99549.28
2023-04-17T03:07:48.032Z,99549.50
2023-04-17T03:10:15.840Z,99545.94
2023-04-17T03:12:44.984Z,99551.56
2023-04-17T03:15:13.369Z,99555.47
2023-04-17T03:17:41.218Z,99555.09
2023-04-17T03:20:09.289Z,99556.66
2023-04-17T03:22:36.834Z,99561.44
2023-04-17T03:25:05.797Z,99552.53
2023-04-17T03:27:34.603Z,99553.34
2023-04-17T03:30:02.689Z,99560.66
2023-04-17T03:32:32.157Z,99560.34
2023-04-17T03:34:59.591Z,99556.69
2023-04-17T03:37:27.671Z,99550.44
2023-04-17T03:39:55.707Z,99551.94
2023-04-17T03:42:26.926Z,99564.44
2023-04-17T03:44:55.460Z,99558.53
2023-04-17T03:47:23.705Z,99563.12
2023-04-17T03:49:51.165Z,99556.06
2023-04-17T03:52:19.180Z,99563.03
2023-04-17T03:54:48.789Z,99563.00
2023-04-17T03:57:16.284Z,99566.72
2023-04-17T03:59:44.468Z,99563.97
2023-04-17T04:02:12.056Z,99564.06
2023-04-17T04:04:40.822Z,99562.16
2023-04-17T04:07:09.414Z,99567.56
2023-04-17T04:09:37.079Z,99570.75
2023-04-17T04:12:05.187Z,99565.94
2023-04-17T04:14:34.650Z,99570.28
2023-04-17T04:17:03.549Z,99565.91
2023-04-17T04:19:31.245Z,99571.72
2023-04-17T04:21:58.879Z,99579.78
2023-04-17T04:24:28.589Z,99585.56
2023-04-17T04:27:02.383Z,99582.06
2023-04-17T04:29:29.781Z,99575.06
2023-04-17T04:31:59.167Z,99578.84
2023-04-17T04:34:30.256Z,99587.47
2023-04-17T04:36:57.920Z,99581.03
2023-04-17T04:39:29.861Z,99593.78
2023-04-17T04:42:05.872Z,99590.16
2023-04-17T04:44:33.923Z,99597.03
2023-04-17T04:47:01.811Z,99603.88
2023-04-17T04:49:29.351Z,99602.16
2023-04-17T04:51:56.732Z,99604.69
2023-04-17T04:54:25.957Z,99603.47
2023-04-17T04:56:54.499Z,99606.75
2023-04-17T04:59:22.220Z,99606.53
2023-04-17T05:01:50.715Z,99610.84
2023-04-17T05:04:18.885Z,99620.25
2023-04-17T05:06:47.780Z,99615.00
2023-04-17T05:09:17.100Z,99609.91
2023-04-17T05:11:45.395Z,99622.72
2023-04-17T05:14:12.765Z,99611.31
2023-04-17T05:16:41.204Z,99616.44
2023-04-17T05:19:09.090Z,99609.63
2023-04-17T05:21:37.546Z,99614.03
2023-04-17T05:24:05.414Z,99613.94
2023-04-17T05:26:33.460Z,99618.00
2023-04-17T05:29:01.465Z,99619.66
2023-04-17T05:31:29.839Z,99618.78
2023-04-17T05:33:57.760Z,99622.97
2023-04-17T05:36:26.551Z,99622.81
2023-04-17T05:38:54.397Z,99622.75
2023-04-17T05:41:21.775Z,99619.00
2023-04-17T05:43:49.171Z,99617.84
2023-04-17T05:46:17.621Z,99610.47
2023-04-17T05:48:45.129Z,99620.34
2023-04-17T05:51:12.810Z,99619.09
2023-04-17T05:53:40.536Z,99619.09
2023-04-17T05:56:08.031Z,99618.16
2023-04-17T05:58:36.146Z,99620.66
2023-04-17T06:01:06.259Z,99628.16
2023-04-17T06:03:34.572Z,99630.09
2023-04-17T06:06:03.782Z,99627.94
2023-04-17T06:08:31.678Z,99635.44
2023-04-17T06:10:59.380Z,99637.84
2023-04-17T06:13:27.269Z,99629.00
2023-04-17T06:15:54.984Z,99633.06
2023-04-17T06:18:22.727Z,99631.62
2023-04-17T06:20:50.519Z,99632.00
2023-04-17T06:23:17.910Z,99630.22
2023-04-17T06:25:45.734Z,99630.91
2023-04-17T06:28:13.211Z,99635.22
2023-04-17T06:30:40.878Z,99638.66
2023-04-17T06:33:08.749Z,99641.25
2023-04-17T06:35:37.670Z,99640.81
2023-04-17T06:38:05.341Z,99646.84
2023-04-17T06:40:33.227Z,99635.47
2023-04-17T06:43:00.889Z,99639.53
2023-04-17T06:45:28.454Z,99644.16
2023-04-17T06:47:57.040Z,99644.59
2023-04-17T06:50:24.508Z,99644.81
2023-04-17T06:52:51.910Z,99652.94
2023-04-17T06:55:20.021Z,99654.25
2023-04-17T06:57:47.386Z,99652.34
2023-04-17T07:00:15.288Z,99655.16
2023-04-17T07:02:43.068Z,99656.41
2023-04-17T07:05:11.022Z,99657.06
2023-04-17T07:07:39.689Z,99665.75
2023-04-17T07:10:07.705Z,99666.16
2023-04-17T07:12:35.124Z,99663.25
2023-04-17T07:15:02.953Z,99662.62
2023-04-17T07:17:30.868Z,99656.34
2023-04-17T07:19:58.287Z,99665.19
2023-04-17T07:22:27.292Z,99661.84
2023-04-17T07:24:55.220Z,99657.37
2023-04-17T07:27:22.704Z,99658.59
2023-04-17T07:29:54.746Z,99655.16
2023-04-17T07:32:24.467Z,99659.38
2023-04-17T07:34:52.074Z,99661.34
2023-04-17T07:37:19.935Z,99658.75
2023-04-17T07:39:50.763Z,99661.44
2023-04-17T07:42:18.182Z,99663.81
2023-04-17T07:44:47.133Z,99669.69
2023-04-17T07:47:15.009Z,99661.31
2023-04-17T07:49:46.329Z,99674.59
2023-04-17T07:52:15.213Z,99685.56
2023-04-17T07:54:42.888Z,99675.47
2023-04-17T07:57:11.110Z,99678.66
2023-04-17T07:59:38.641Z,99675.06
2023-04-17T08:02:06.614Z,99672.50
2023-04-17T08:04:34.658Z,99676.38
2023-04-17T08:07:03.028Z,99674.75
2023-04-17T08:09:30.490Z,99669.31
2023-04-17T08:11:58.491Z,99674.56
2023-04-17T08:14:25.892Z,99676.78
2023-04-17T08:16:53.385Z,99666.69
2023-04-17T08:19:21.058Z,99668.75
2023-04-17T08:21:49.077Z,99675.78
2023-04-17T08:24:19.788Z,99680.13
2023-04-17T08:26:47.978Z,99683.41
2023-04-17T08:29:15.801Z,99675.44
2023-04-17T08:31:43.565Z,99670.66
2023-04-17T08:34:14.783Z,99670.16
2023-04-17T08:36:43.154Z,99674.69
2023-04-17T08:39:12.330Z,99672.63
2023-04-17T08:41:45.253Z,99661.91
2023-04-17T08:44:13.855Z,99671.56
2023-04-17T08:46:41.541Z,99667.38
2023-04-17T08:49:08.912Z,99669.25
2023-04-17T08:51:36.689Z,99669.84
2023-04-17T08:54:04.174Z,99664.69
2023-04-17T08:56:31.627Z,99668.84
2023-04-17T08:58:59.298Z,99665.47
2023-04-17T09:01:28.395Z,99671.34
2023-04-17T09:03:57.272Z,99658.47
2023-04-17T09:06:25.352Z,99663.25
2023-04-17T09:09:04.094Z,99663.53
2023-04-17T09:11:31.734Z,99660.97
2023-04-17T09:14:01.135Z,99661.69
2023-04-17T09:16:29.139Z,99658.53
2023-04-17T09:19:07.029Z,99664.19
2023-04-17T09:21:34.469Z,99670.09
2023-04-17T09:24:02.302Z,99665.69
2023-04-17T09:26:32.003Z,99667.06
2023-04-17T09:29:14.755Z,99670.03
2023-04-17T09:31:43.089Z,99664.00
2023-04-17T09:34:16.380Z,99651.13
2023-04-17T09:36:44.266Z,99659.63
2023-04-17T09:39:20.610Z,99661.09
2023-04-17T09:41:48.663Z,99659.16
2023-04-17T09:44:28.221Z,99664.94
2023-04-17T09:46:56.408Z,99649.84
2023-04-17T09:49:33.938Z,99651.22
2023-04-17T09:52:02.846Z,99654.38
2023-04-17T09:54:31.585Z,99650.78
2023-04-17T09:56:59.432Z,99643.66
2023-04-17T09:59:27.706Z,99650.87
2023-04-17T10:01:55.731Z,99645.19
2023-04-17T10:04:23.878Z,99642.75
2023-04-17T10:06:51.368Z,99644.34
2023-04-17T10:09:18.733Z,99648.31
2023-04-17T10:11:47.075Z,99645.59
2023-04-17T10:14:23.809Z,99636.81
2023-04-17T10:16:52.074Z,99638.81
2023-04-17T10:19:31.250Z,99636.41
2023-04-17T10:22:14.251Z,99628.34
2023-04-17T10:24:42.654Z,99618.72
2023-04-17T10:27:28.444Z,99630.75
2023-04-17T10:29:58.000Z,99629.56
2023-04-17T10:32:28.640Z,99624.94
2023-04-17T10:35:01.287Z,99627.84
2023-04-17T10:38:13.035Z,99637.59
2023-04-17T10:40:43.266Z,99623.06
2023-04-17T10:43:13.793Z,99625.22
2023-04-17T10:45:53.840Z,99625.16
2023-04-17T10:48:38.130Z,99627.41
2023-04-17T10:51:21.382Z,99628.81
2023-04-17T10:53:49.718Z,99615.62
2023-04-17T10:56:27.075Z,99617.31
2023-04-17T10:59:01.828Z,99620.72
2023-04-17T11:01:30.389Z,99617.66
2023-04-17T11:04:01.511Z,99622.56
2023-04-17T11:06:32.728Z,99626.53
2023-04-17T11:09:00.859Z,99612.06
2023-04-17T11:11:43.006Z,99616.78
2023-04-17T11:14:19.426Z,99618.59
2023-04-17T11:16:49.759Z,99625.38
2023-04-17T11:19:19.166Z,99616.06
2023-04-17T11:21:47.990Z,99620.06
2023-04-17T11:24:25.470Z,99615.34
2023-04-17T11:26:53.581Z,99620.09
2023-04-17T11:29:22.157Z,99612.09
2023-04-17T11:31:54.669Z,99617.44
2023-04-17T11:34:22.726Z,99619.87
2023-04-17T11:36:51.727Z,99611.38
2023-04-17T11:39:20.244Z,99616.59
2023-04-17T11:41:48.073Z,99616.00
2023-04-17T11:44:17.288Z,99620.00
2023-04-17T11:46:58.837Z,99616.78
2023-04-17T11:49:37.427Z,99613.16
2023-04-17T11:52:05.456Z,99609.19
2023-04-17T11:54:39.675Z,99606.91
2023-04-17T11:57:13.962Z,99606.69
2023-04-17T11:59:42.846Z,99606.84
2023-04-17T12:02:10.404Z,99614.69
2023-04-17T12:04:39.675Z,99611.69
2023-04-17T12:07:08.204Z,99608.75
2023-04-17T12:09:36.038Z,99607.47
2023-04-17T12:12:07.647Z,99610.78
2023-04-17T12:14:35.480Z,99607.00
2023-04-17T12:17:02.913Z,99607.69
2023-04-17T12:19:31.914Z,99613.84
2023-04-17T12:21:59.720Z,99608.00
2023-04-17T12:24:27.241Z,99610.84
2023-04-17T12:26:56.071Z,99601.75
2023-04-17T12:29:36.234Z,99605.19
2023-04-17T12:32:11.550Z,99604.91
2023-04-17T12:34:39.127Z,99597.53
2023-04-17T12:37:06.611Z,99587.50
2023-04-17T12:39:34.493Z,99604.31
2023-04-17T12:42:01.919Z,99602.09
2023-04-17T12:44:29.535Z,99591.78
2023-04-17T12:46:57.254Z,99587.66
2023-04-17T12:49:24.717Z,99582.78
2023-04-17T12:51:52.533Z,99581.87
2023-04-17T12:54:20.335Z,99581.75
2023-04-17T12:56:47.786Z,99592.50
2023-04-17T12:59:15.264Z,99577.22
2023-04-17T13:01:43.633Z,99582.06
2023-04-17T13:04:11.367Z,99570.97
2023-04-17T13:06:39.211Z,99569.22
2023-04-17T13:09:07.086Z,99566.16
2023-04-17T13:11:34.472Z,99564.63
2023-04-17T13:14:02.021Z,99566.16
2023-04-17T13:16:29.817Z,99563.53
2023-04-17T13:18:57.439Z,99563.69
2023-04-17T13:21:24.864Z,99556.66
2023-04-17T13:23:52.550Z,99554.25
2023-04-17T13:26:20.583Z,99552.06
2023-04-17T13:28:48.109Z,99555.66
2023-04-17T13:31:16.441Z,99544.84
2023-04-17T13:33:44.690Z,99542.88
2023-04-17T13:36:12.340Z,99538.72
2023-04-17T13:38:40.053Z,99535.75
2023-04-17T13:41:07.520Z,99547.06
2023-04-17T13:43:34.955Z,99546.13
2023-04-17T13:46:02.712Z,99548.50
2023-04-17T13:48:30.466Z,99546.47
2023-04-17T13:50:57.881Z,99546.09
2023-04-17T13:53:25.681Z,99550.50
2023-04-17T13:55:53.041Z,99550.13
2023-04-17T13:58:20.639Z,99554.81
2023-04-17T14:00:48.342Z,99559.63
2023-04-17T14:03:16.190Z,99578.19
2023-04-17T14:05:43.988Z,99577.06
2023-04-17T14:08:11.410Z,99579.69
2023-04-17T14:10:39.429Z,99582.53
2023-04-17T14:13:07.185Z,99584.91
2023-04-17T14:15:34.912Z,99577.91
2023-04-17T14:18:02.660Z,99576.78
2023-04-17T14:20:30.291Z,99576.00
2023-04-17T14:22:57.693Z,99570.06
2023-04-17T14:25:25.381Z,99569.19
2023-04-17T14:27:52.757Z,99568.88
2023-04-17T14:30:20.336Z,99560.97
2023-04-17T14:32:49.406Z,99555.44
2023-04-17T14:35:16.982Z,99559.00
2023-04-17T14:37:44.423Z,99554.81
2023-04-17T14:40:12.585Z,99549.22
2023-04-17T14:42:51.156Z,99555.47
2023-04-17T14:45:21.659Z,99551.63
2023-04-17T14:47:49.474Z,99559.69
2023-04-17T14:50:17.022Z,99557.13
2023-04-17T14:52:44.727Z,99554.31
2023-04-17T14:55:12.489Z,99560.44
2023-04-17T14:57:39.968Z,99562.03
2023-04-17T15:00:08.640Z,99563.12
2023-04-17T15:02:38.315Z,99563.38
2023-04-17T15:05:06.895Z,99557.56
2023-04-17T15:07:35.301Z,99557.66
2023-04-17T15:10:02.825Z,99560.03
2023-04-17T15:12:30.229Z,99559.50
2023-04-17T15:14:57.925Z,99565.78
2023-04-17T15:17:25.574Z,99564.19
2023-04-17T15:19:54.802Z,99561.75
2023-04-17T15:22:22.587Z,99559.91
2023-04-17T15:24:49.995Z,99571.22
2023-04-17T15:27:17.503Z,99568.88
2023-04-17T15:29:45.975Z,99569.38
2023-04-17T15:32:13.585Z,99567.19
2023-04-17T15:34:41.090Z,99568.13
2023-04-17T15:37:10.577Z,99560.13
2023-04-17T15:39:39.286Z,99568.13
2023-04-17T15:42:11.080Z,99567.47
2023-04-17T15:44:38.889Z,99570.06
2023-04-17T15:47:06.752Z,99563.75
2023-04-17T15:49:34.462Z,99566.78
2023-04-17T15:52:02.149Z,99566.87
2023-04-17T15:54:30.965Z,99564.50
2023-04-17T15:56:59.095Z,99565.41
2023-04-17T15:59:26.984Z,99565.31
2023-04-17T16:01:54.658Z,99565.41
2023-04-17T16:04:22.633Z,99566.19
2023-04-17T16:06:50.917Z,99568.84
2023-04-17T16:09:20.088Z,99559.87
2023-04-17T16:11:48.523Z,99564.09
2023-04-17T16:14:16.116Z,99566.44
2023-04-17T16:16:43.502Z,99559.87
2023-04-17T16:19:11.534Z,99566.47
2023-04-17T16:21:39.123Z,99563.16
2023-04-17T16:24:06.602Z,99559.56
2023-04-17T16:26:34.263Z,99562.19
2023-04-17T16:29:01.743Z,99568.53
2023-04-17T16:31:29.362Z,99561.19
2023-04-17T16:33:57.106Z,99561.53
2023-04-17T16:36:24.518Z,99565.59
2023-04-17T16:38:51.923Z,99561.72
2023-04-17T16:41:20.397Z,99561.97
2023-04-17T16:43:48.067Z,99564.03
2023-04-17T16:46:23.907Z,99567.59
2023-04-17T16:48:56.347Z,99563.81
2023-04-17T16:51:23.951Z,99563.03
2023-04-17T16:53:51.533Z,99565.50
2023-04-17T16:56:19.235Z,99569.09
2023-04-17T16:58:46.664Z,99574.56
2023-04-17T17:01:14.152Z,99568.38
2023-04-17T17:03:43.315Z,99569.59
2023-04-17T17:06:10.819Z,99567.44
2023-04-17T17:08:38.923Z,99571.44
2023-04-17T17:11:06.585Z,99574.97
2023-04-17T17:13:34.068Z,99569.34
2023-04-17T17:16:01.596Z,99576.03
2023-04-17T17:18:29.355Z,99578.81
2023-04-17T17:20:58.546Z,99576.19
2023-04-17T17:23:26.620Z,99585.00
2023-04-17T17:25:54.294Z,99581.09
2023-04-17T17:28:21.729Z,99583.41
2023-04-17T17:30:49.193Z,99577.88
2023-04-17T17:33:17.072Z,99585.00
2023-04-17T17:35:44.424Z,99583.06
2023-04-17T17:38:12.261Z,99583.41
2023-04-17T17:40:40.034Z,99579.47
2023-04-17T17:43:07.421Z,99584.63
2023-04-17T17:45:34.850Z,99585.62
2023-04-17T17:48:02.603Z,99587.09
2023-04-17T17:50:30.051Z,99577.19
2023-04-17T17:52:58.946Z,99578.25
2023-04-17T17:55:26.840Z,99579.38
2023-04-17T17:57:54.264Z,99586.25
2023-04-17T18:00:21.785Z,99584.31
2023-04-17T18:02:49.801Z,99595.91
2023-04-17T18:05:18.011Z,99587.81
2023-04-17T18:07:45.577Z,99594.50
2023-04-17T18:10:13.441Z,99600.78
2023-04-17T18:12:40.835Z,99594.38
2023-04-17T18:15:08.990Z,99601.56
2023-04-17T18:17:36.789Z,99604.69
2023-04-17T18:20:04.710Z,99600.78
2023-04-17T18:22:32.554Z,99601.03
2023-04-17T18:25:00.202Z,99605.34
2023-04-17T18:27:27.643Z,99606.13
2023-04-17T18:29:55.347Z,99611.81
2023-04-17T18:32:23.034Z,99611.50
2023-04-17T18:34:51.280Z,99615.13
2023-04-17T18:37:18.914Z,99619.25
2023-04-17T18:39:46.547Z,99617.47
2023-04-17T18:42:13.966Z,99622.91
2023-04-17T18:44:41.915Z,99616.84
2023-04-17T18:47:09.882Z,99612.84
2023-04-17T18:49:37.308Z,99616.00
2023-04-17T18:52:05.600Z,99619.72
2023-04-17T18:54:33.836Z,99616.97
2023-04-17T18:57:01.850Z,99627.50
2023-04-17T18:59:30.174Z,99618.84
2023-04-17T19:01:58.028Z,99622.44
2023-04-17T19:04:25.990Z,99621.69
2023-04-17T19:06:53.364Z,99619.72
2023-04-17T19:09:21.141Z,99623.94
2023-04-17T19:11:48.580Z,99624.34
2023-04-17T19:14:15.959Z,99625.16
2023-04-17T19:16:45.826Z,99632.97
2023-04-17T19:19:15.474Z,99632.47
2023-04-17T19:21:43.311Z,99625.53
2023-04-17T19:24:11.015Z,99626.34
2023-04-17T19:26:38.382Z,99628.81
2023-04-17T19:29:05.844Z,99634.31
2023-04-17T19:31:33.737Z,99638.06
2023-04-17T19:34:01.629Z,99631.06
2023-04-17T19:36:29.214Z,99636.72
2023-04-17T19:38:59.620Z,99634.81
2023-04-17T19:41:28.113Z,99635.91
2023-04-17T19:43:55.554Z,99632.47
2023-04-17T19:46:24.096Z,99632.25
2023-04-17T19:48:52.337Z,99632.56
2023-04-17T19:51:19.792Z,99627.97
2023-04-17T19:53:48.056Z,99622.34
2023-04-17T19:56:16.491Z,99621.94
2023-04-17T19:58:43.929Z,99619.25
2023-04-17T20:01:11.815Z,99619.34
2023-04-17T20:03:42.013Z,99620.75
2023-04-17T20:06:09.672Z,99614.88
2023-04-17T20:08:37.405Z,99611.38
2023-04-17T20:11:06.373Z,99616.69
2023-04-17T20:13:33.973Z,99613.66
2023-04-17T20:16:01.421Z,99614.94
2023-04-17T20:18:29.086Z,99617.56
2023-04-17T20:20:56.486Z,99620.22
2023-04-17T20:23:23.962Z,99609.03
2023-04-17T20:25:51.656Z,99615.91
2023-04-17T20:28:19.262Z,99611.72
2023-04-17T20:30:46.996Z,99614.94
2023-04-17T20:33:14.711Z,99628.00
2023-04-17T20:35:42.349Z,99623.59
2023-04-17T20:38:09.763Z,99625.03
2023-04-17T20:40:37.518Z,99636.31
2023-04-17T20:43:04.964Z,99629.63
2023-04-17T20:45:32.434Z,99637.19
2023-04-17T20:48:00.360Z,99636.81
2023-04-17T20:50:28.392Z,99637.03
2023-04-17T20:52:56.124Z,99647.41
2023-04-17T20:55:24.268Z,99644.47
2023-04-17T20:57:51.903Z,99644.38
2023-04-17T21:00:19.559Z,99638.62
2023-04-17T21:02:47.461Z,99649.38
2023-04-17T21:05:15.079Z,99651.78
2023-04-17T21:07:42.449Z,99651.22
2023-04-17T21:10:10.132Z,99651.22
2023-04-17T21:12:37.814Z,99651.78
2023-04-17T21:15:05.703Z,99644.44
2023-04-17T21:17:33.396Z,99650.59
2023-04-17T21:20:00.772Z,99649.78
2023-04-17T21:22:28.226Z,99656.06
2023-04-17T21:24:55.892Z,99649.78
2023-04-17T21:27:23.580Z,99645.56
2023-04-17T21:29:51.038Z,99652.31
2023-04-17T21:32:18.740Z,99644.81
2023-04-17T21:34:46.163Z,99648.25
2023-04-17T21:37:13.566Z,99649.97
2023-04-17T21:39:41.204Z,99646.97
2023-04-17T21:42:09.740Z,99649.87
2023-04-17T21:44:37.192Z,99651.22
2023-04-17T21:47:04.869Z,99647.50
2023-04-17T21:49:32.219Z,99654.41
2023-04-17T21:51:59.653Z,99649.87
2023-04-17T21:54:27.687Z,99647.22
2023-04-17T21:56:55.703Z,99649.63
2023-04-17T21:59:24.325Z,99646.78
2023-04-17T22:01:52.257Z,99643.00
2023-04-17T22:04:20.016Z,99649.13
2023-04-17T22:06:47.450Z,99656.88
2023-04-17T22:09:14.969Z,99651.44
2023-04-17T22:11:42.677Z,99652.97
2023-04-17T22:14:10.147Z,99652.69
2023-04-17T22:16:37.652Z,99650.06
2023-04-17T22:19:05.422Z,99651.63
2023-04-17T22:21:32.797Z,99654.81
2023-04-17T22:24:00.234Z,99651.81
2023-04-17T22:26:28.112Z,99651.59
2023-04-17T22:28:55.494Z,99656.16
2023-04-17T22:31:23.097Z,99651.72
2023-04-17T22:33:50.795Z,99658.75
2023-04-17T22:36:18.205Z,99659.41
2023-04-17T22:38:45.992Z,99665.16
2023-04-17T22:41:13.773Z,99664.59
2023-04-17T22:43:41.159Z,99666.41
2023-04-17T22:46:08.604Z,99661.31
2023-04-17T22:48:36.773Z,99664.81
2023-04-17T22:51:04.388Z,99671.00
2023-04-17T22:53:31.816Z,99672.03
2023-04-17T22:56:03.468Z,99668.38
2023-04-17T22:58:32.008Z,99669.94
2023-04-17T23:01:00.286Z,99669.19
2023-04-17T23:03:28.117Z,99672.97
2023-04-17T23:05:55.922Z,99673.84
2023-04-17T23:08:24.151Z,99671.44
2023-04-17T23:10:59.680Z,99676.62
2023-04-17T23:13:28.129Z,99665.16
2023-04-17T23:15:55.701Z,99664.22
2023-04-17T23:18:23.532Z,99673.06
2023-04-17T23:20:51.367Z,99677.19
2023-04-17T23:23:19.024Z,99673.72
2023-04-17T23:25:46.467Z,99671.88
2023-04-17T23:28:14.439Z,99665.91
2023-04-17T23:30:42.133Z,99665.44
2023-04-17T23:33:09.768Z,99669.97
2023-04-17T23:35:37.918Z,99670.44
2023-04-17T23:38:05.383Z,99656.38
2023-04-17T23:40:34.761Z,99662.53
2023-04-17T23:43:02.574Z,99669.72
2023-04-17T23:45:29.966Z,99656.22
2023-04-17T23:47:57.563Z,99673.06
2023-04-17T23:50:25.995Z,99663.44
2023-04-17T23:52:54.922Z,99661.88
2023-04-17T23:55:23.111Z,99662.97
2023-04-17T23:57:50.811Z,99659.25
